MO57 weather

Henderson Mounds E B G Airport
East Prairie, Missouri, United States

Public forecast

Using degrees Fahrenheit for public forecast. Weather courtesy of forecast.io.

METAR (pilot weather report)

Closest report is Sikeston Memorial Municipal Airport, 12.4 nm (23.0 km) NNW. Retrieved 2019/06/16 08:35 UTC (16 minutes ago):

KSIK 160835Z AUTO 20005KT 10SM CLR 26/21 A2984 RMK AO2 LTG DSNT E

TAF (pilot weather forecast)

Closest forecast is Cape Girardeau Regional Airport, 31.5 nm (58.4 km) N. Retrieved 2019/06/16 06:22 UTC (2 hours ago):

TAF KCGI 160520Z 1606/1706 20009KT P6SM FEW045 SCT200 FM160900 21008KT P6SM VCSH SCT040 BKN150 WS020/23040KT FM161300 22010G20KT P6SM VCSH SCT028 BKN200 FM170000 21007KT P6SM SCT050 BKN100